createdAt,value
2023-04-26T00:00:23.237Z,97707.36
2023-04-26T00:02:53.990Z,97708.96
2023-04-26T00:05:24.723Z,97701.33
2023-04-26T00:07:55.035Z,97690.43
2023-04-26T00:10:25.312Z,97690.97
2023-04-26T00:12:56.891Z,97694.78
2023-04-26T00:15:28.086Z,97689.03
2023-04-26T00:17:58.093Z,97689.88
2023-04-26T00:20:29.906Z,97683.85
2023-04-26T00:22:59.917Z,97672.65
2023-04-26T00:25:32.316Z,97670.05
2023-04-26T00:28:02.781Z,97678.60
2023-04-26T00:30:37.863Z,97680.51
2023-04-26T00:33:18.767Z,97675.61
2023-04-26T00:35:50.389Z,97664.91
2023-04-26T00:38:20.378Z,97677.20
2023-04-26T00:40:50.248Z,97673.08
2023-04-26T00:43:20.150Z,97669.51
2023-04-26T00:45:50.875Z,97667.33
2023-04-26T00:48:23.798Z,97669.78
2023-04-26T00:50:53.885Z,97665.39
2023-04-26T00:53:23.954Z,97669.20
2023-04-26T00:55:55.197Z,97675.70
2023-04-26T00:58:25.379Z,97687.95
2023-04-26T01:01:06.674Z,97697.22
2023-04-26T01:03:46.500Z,97701.84
2023-04-26T01:06:27.361Z,97705.66
2023-04-26T01:08:57.098Z,97702.62
2023-04-26T01:11:27.025Z,97703.95
2023-04-26T01:13:57.154Z,97705.31
2023-04-26T01:16:27.092Z,97703.67
2023-04-26T01:18:57.844Z,97707.45
2023-04-26T01:21:35.071Z,97707.17
2023-04-26T01:24:05.728Z,97709.09
2023-04-26T01:26:35.688Z,97700.64
2023-04-26T01:29:09.551Z,97695.42
2023-04-26T01:31:39.737Z,97655.94
2023-04-26T01:34:10.672Z,97680.17
2023-04-26T01:36:45.212Z,97672.47
2023-04-26T01:39:14.283Z,97675.20
2023-04-26T01:41:45.987Z,97691.53
2023-04-26T01:44:16.696Z,97697.25
2023-04-26T01:46:46.523Z,97700.52
2023-04-26T01:49:19.684Z,97707.87
2023-04-26T01:52:00.178Z,97708.92
2023-04-26T01:54:37.005Z,97719.00
2023-04-26T01:57:07.382Z,97720.08
2023-04-26T01:59:38.468Z,97728.25
2023-04-26T02:02:21.227Z,97730.66
2023-04-26T02:05:00.749Z,97733.11
2023-04-26T02:07:49.911Z,97724.08
2023-04-26T02:10:43.826Z,97730.08
2023-04-26T02:13:30.647Z,97717.28
2023-04-26T02:16:10.340Z,97717.28
2023-04-26T02:18:52.987Z,97715.61
2023-04-26T02:24:49.291Z,97718.05
2023-04-26T02:30:12.649Z,97719.41
2023-04-26T02:32:56.942Z,97722.91
2023-04-26T02:35:40.840Z,97728.36
2023-04-26T02:38:12.943Z,97709.02
2023-04-26T02:41:15.884Z,97702.13
2023-04-26T02:43:57.488Z,97705.72
2023-04-26T02:46:29.504Z,97706.26
2023-04-26T02:49:55.827Z,97708.67
2023-04-26T02:52:06.659Z,97699.69
2023-04-26T02:55:06.462Z,97706.22
2023-04-26T02:58:06.093Z,97716.83
2023-04-26T03:00:59.557Z,97728.77
2023-04-26T03:04:44.248Z,97738.30
2023-04-26T03:12:47.847Z,97745.61
2023-04-26T03:15:18.544Z,97749.10
2023-04-26T03:17:57.211Z,97755.63
2023-04-26T03:20:49.580Z,97756.99
2023-04-26T03:23:20.590Z,97750.73
2023-04-26T03:26:07.058Z,97759.44
2023-04-26T03:28:41.430Z,97757.23
2023-04-26T03:31:33.168Z,97756.95
2023-04-26T03:37:01.164Z,97767.84
2023-04-26T03:42:24.604Z,97771.33
2023-04-26T03:44:57.192Z,97764.79
2023-04-26T03:47:30.354Z,97767.51
2023-04-26T03:50:01.370Z,97769.92
2023-04-26T03:52:46.661Z,97786.25
2023-04-26T03:55:31.117Z,97796.33
2023-04-26T04:04:10.589Z,97781.62
2023-04-26T04:07:16.314Z,97770.42
2023-04-26T04:10:01.318Z,97770.14
2023-04-26T04:12:37.549Z,97779.36
2023-04-26T04:15:08.374Z,97773.91
2023-04-26T04:17:40.975Z,97788.60
2023-04-26T04:20:17.496Z,97780.44
2023-04-26T04:22:50.696Z,97778.98
2023-04-26T04:26:01.096Z,97777.13
2023-04-26T04:28:33.809Z,97778.48
2023-04-26T04:34:30.259Z,97746.22
2023-04-26T04:37:20.555Z,97792.59
2023-04-26T04:40:18.865Z,97791.91
2023-04-26T04:43:29.876Z,97807.82
2023-04-26T04:46:16.810Z,97808.87
2023-04-26T04:52:16.868Z,97810.48
2023-04-26T05:03:27.891Z,97799.25
2023-04-26T05:06:00.786Z,97791.34
2023-04-26T05:08:41.766Z,97795.42
2023-04-26T05:11:20.894Z,97795.08
2023-04-26T05:13:54.615Z,97791.00
2023-04-26T05:16:35.986Z,97790.72
2023-04-26T05:19:43.459Z,97800.78
2023-04-26T05:25:22.799Z,97810.54
2023-04-26T05:30:48.482Z,97807.23
2023-04-26T05:34:26.660Z,97804.17
2023-04-26T05:36:19.371Z,97817.83
2023-04-26T05:38:55.005Z,97810.75
2023-04-26T05:41:48.025Z,97797.69
2023-04-26T05:49:54.929Z,97765.91
2023-04-26T05:52:53.525Z,97756.83
2023-04-26T05:55:36.792Z,97752.75
2023-04-26T05:58:29.741Z,97765.22
2023-04-26T06:05:10.627Z,97776.33
2023-04-26T06:07:41.589Z,97767.34
2023-04-26T06:10:48.093Z,97765.12
2023-04-26T06:13:59.471Z,97765.12
2023-04-26T06:16:39.983Z,97757.50
2023-04-26T06:23:13.305Z,97737.05
2023-04-26T06:25:44.558Z,97741.12
2023-04-26T06:28:29.049Z,97746.29
2023-04-26T06:33:47.999Z,97763.66
2023-04-26T06:36:17.894Z,97775.08
2023-04-26T06:38:47.954Z,97782.95
2023-04-26T06:41:17.938Z,97782.95
2023-04-26T06:43:47.728Z,97783.47
2023-04-26T06:46:30.653Z,97779.39
2023-04-26T06:51:48.862Z,97769.05
2023-04-26T06:54:18.742Z,97758.97
2023-04-26T06:56:49.051Z,97758.97
2023-04-26T06:59:19.050Z,97754.89
2023-04-26T07:01:49.424Z,97752.17
2023-04-26T07:04:28.751Z,97745.06
2023-04-26T07:06:58.914Z,97720.87
2023-04-26T07:09:28.925Z,97729.51
2023-04-26T07:11:58.870Z,97715.91
2023-04-26T07:14:28.863Z,97710.19
2023-04-26T07:16:58.840Z,97703.62
2023-04-26T07:19:29.103Z,97701.22
2023-04-26T07:21:59.137Z,97693.28
2023-04-26T07:24:29.457Z,97686.48
2023-04-26T07:27:00.791Z,97666.35
2023-04-26T07:29:30.739Z,97656.02
2023-04-26T07:32:09.211Z,97642.92
2023-04-26T07:34:39.881Z,97639.92
2023-04-26T07:37:32.781Z,97637.75
2023-04-26T07:40:04.375Z,97648.63
2023-04-26T07:42:35.526Z,97647.81
2023-04-26T07:45:06.152Z,97641.24
2023-04-26T07:47:36.167Z,97636.34
2023-04-26T07:50:06.305Z,97636.88
2023-04-26T07:55:54.975Z,97650.17
2023-04-26T08:04:51.779Z,97628.19
2023-04-26T08:08:14.356Z,97626.45
2023-04-26T08:10:54.432Z,97615.72
2023-04-26T08:14:12.344Z,97634.30
2023-04-26T08:17:13.238Z,97634.56
2023-04-26T08:20:10.248Z,97631.53
2023-04-26T08:23:14.644Z,97618.48
2023-04-26T08:26:03.021Z,97617.66
2023-04-26T08:32:00.744Z,97625.23
2023-04-26T08:34:55.890Z,97633.38
2023-04-26T08:59:02.334Z,97645.96
2023-04-26T09:01:59.098Z,97668.89
2023-04-26T09:04:50.124Z,97689.78
2023-04-26T09:07:49.099Z,97715.33
2023-04-26T09:13:17.075Z,97749.03
2023-04-26T09:15:48.755Z,97752.80
2023-04-26T09:18:23.421Z,97753.53
2023-04-26T09:21:10.078Z,97767.75
2023-04-26T09:23:40.897Z,97762.84
2023-04-26T09:26:29.961Z,97772.08
2023-04-26T09:29:19.457Z,97768.55
2023-04-26T09:32:09.923Z,97761.75
2023-04-26T09:34:51.991Z,97759.53
2023-04-26T09:37:22.995Z,97754.36
2023-04-26T09:39:52.752Z,97757.89
2023-04-26T09:42:22.854Z,97756.25
2023-04-26T09:44:54.209Z,97732.30
2023-04-26T09:47:25.546Z,97703.76
2023-04-26T09:49:58.596Z,97688.81
2023-04-26T09:56:05.438Z,97681.20
2023-04-26T09:59:21.506Z,97662.43
2023-04-26T10:02:01.134Z,97634.44
2023-04-26T10:07:22.295Z,97539.00
2023-04-26T10:09:52.712Z,97486.27
2023-04-26T10:12:22.704Z,97464.21
2023-04-26T10:14:52.686Z,97459.31
2023-04-26T10:20:28.918Z,97488.48
2023-04-26T10:26:43.978Z,97615.91
2023-04-26T10:29:49.837Z,97615.81
2023-04-26T10:32:31.918Z,97603.84
2023-04-26T10:35:18.563Z,97609.82
2023-04-26T10:38:22.583Z,97606.87
2023-04-26T10:41:28.425Z,97618.20
2023-04-26T10:44:37.202Z,97610.59
2023-04-26T10:47:43.970Z,97605.66
2023-04-26T10:50:37.868Z,97598.28
2023-04-26T10:53:35.622Z,97597.74
2023-04-26T10:56:47.851Z,97591.20
2023-04-26T10:59:43.537Z,97586.28
2023-04-26T11:05:42.055Z,97593.98
2023-04-26T11:08:31.206Z,97589.80
2023-04-26T11:14:18.660Z,97575.91
2023-04-26T11:19:40.990Z,97588.93
2023-04-26T11:22:12.456Z,97597.08
2023-04-26T11:24:44.732Z,97605.23
2023-04-26T11:27:15.863Z,97614.44
2023-04-26T11:30:03.783Z,97630.50
2023-04-26T11:32:40.338Z,97637.84
2023-04-26T11:35:21.027Z,97625.84
2023-04-26T11:38:36.588Z,97612.79
2023-04-26T11:44:18.555Z,97627.14
2023-04-26T11:49:44.624Z,97638.78
2023-04-26T11:52:14.939Z,97655.62
2023-04-26T11:54:45.854Z,97652.56
2023-04-26T11:57:17.768Z,97650.82
2023-04-26T11:59:57.202Z,97668.38
2023-04-26T12:03:03.798Z,97669.74
2023-04-26T12:05:35.953Z,97659.95
2023-04-26T12:08:59.728Z,97650.08
2023-04-26T12:11:41.656Z,97658.82
2023-04-26T12:15:15.668Z,97641.70
2023-04-26T12:18:01.325Z,97631.88
2023-04-26T12:20:50.804Z,97628.98
2023-04-26T12:29:31.429Z,97639.45
2023-04-26T12:32:42.022Z,97636.78
2023-04-26T12:35:38.686Z,97639.12
2023-04-26T12:38:41.084Z,97636.88
2023-04-26T12:41:36.737Z,97643.05
2023-04-26T12:44:38.499Z,97649.49
2023-04-26T12:48:01.557Z,97668.72
2023-04-26T12:54:26.750Z,97664.70
2023-04-26T12:56:57.762Z,97658.29
2023-04-26T13:02:23.110Z,97665.09
2023-04-26T13:04:53.385Z,97659.13
2023-04-26T13:07:23.302Z,97653.47
2023-04-26T13:09:53.167Z,97641.84
2023-04-26T13:12:23.135Z,97624.97
2023-04-26T13:14:53.159Z,97634.34
2023-04-26T13:17:27.434Z,97646.67
2023-04-26T13:19:58.401Z,97639.67
2023-04-26T13:22:28.338Z,97632.63
2023-04-26T13:24:58.425Z,97650.41
2023-04-26T13:27:31.632Z,97676.36
2023-04-26T13:30:04.120Z,97691.96
2023-04-26T13:32:33.935Z,97696.12
2023-04-26T13:35:05.043Z,97686.36
2023-04-26T13:37:36.274Z,97679.38
2023-04-26T13:40:06.656Z,97678.60
2023-04-26T13:42:36.659Z,97673.23
2023-04-26T13:45:09.153Z,97681.47
2023-04-26T13:47:40.292Z,97691.90
2023-04-26T13:52:59.439Z,97687.88
2023-04-26T13:55:30.588Z,97695.27
2023-04-26T13:58:00.643Z,97689.00
2023-04-26T14:00:30.602Z,97693.33
2023-04-26T14:03:02.343Z,97691.42
2023-04-26T14:05:47.968Z,97683.79
2023-04-26T14:11:10.817Z,97676.44
2023-04-26T14:13:40.813Z,97677.52
2023-04-26T14:16:12.107Z,97684.34
2023-04-26T14:18:43.514Z,97696.59
2023-04-26T14:21:15.773Z,97700.69
2023-04-26T14:23:46.995Z,97698.50
2023-04-26T14:26:55.525Z,97703.11
2023-04-26T14:29:43.615Z,97688.66
2023-04-26T14:32:15.246Z,97687.84
2023-04-26T14:34:45.945Z,97687.84
2023-04-26T14:37:16.917Z,97684.30
2023-04-26T14:39:48.064Z,97693.02
2023-04-26T14:42:30.781Z,97688.62
2023-04-26T14:45:13.297Z,97682.63
2023-04-26T14:51:12.016Z,97700.08
2023-04-26T14:53:53.178Z,97729.50
2023-04-26T14:59:08.922Z,97721.84
2023-04-26T15:01:39.263Z,97721.02
2023-04-26T15:04:17.899Z,97714.20
2023-04-26T15:07:01.420Z,97711.48
2023-04-26T15:09:33.312Z,97701.91
2023-04-26T15:13:00.709Z,97697.28
2023-04-26T15:15:36.520Z,97701.36
2023-04-26T15:18:37.721Z,97716.63
2023-04-26T15:21:45.677Z,97727.22
2023-04-26T15:24:16.250Z,97735.93
2023-04-26T15:27:00.191Z,97745.20
2023-04-26T15:29:52.649Z,97744.07
2023-04-26T15:32:22.856Z,97750.61
2023-04-26T15:34:52.913Z,97751.66
2023-04-26T15:37:22.887Z,97741.03
2023-04-26T15:39:52.951Z,97747.30
2023-04-26T15:42:40.733Z,97736.91
2023-04-26T15:45:38.410Z,97744.26
2023-04-26T15:48:34.909Z,97757.06
2023-04-26T15:51:17.282Z,97764.39
2023-04-26T15:54:35.882Z,97770.10
2023-04-26T15:57:36.091Z,97781.20
2023-04-26T16:00:37.300Z,97789.64
2023-04-26T16:03:33.158Z,97810.89
2023-04-26T16:06:55.200Z,97813.27
2023-04-26T16:09:26.060Z,97812.98
2023-04-26T16:12:22.037Z,97825.25
2023-04-26T16:18:24.539Z,97836.92
2023-04-26T16:24:22.773Z,97860.58
2023-04-26T16:27:06.570Z,97878.28
2023-04-26T16:29:36.537Z,97878.55
2023-04-26T16:32:08.289Z,97871.96
2023-04-26T16:34:38.308Z,97880.95
2023-04-26T16:37:08.336Z,97876.09
2023-04-26T16:39:40.066Z,97880.50
2023-04-26T16:42:15.882Z,97882.45
2023-04-26T16:45:12.143Z,97874.09
2023-04-26T16:54:14.052Z,97858.77
2023-04-26T16:59:32.410Z,97848.52
2023-04-26T17:02:02.454Z,97843.69
2023-04-26T17:04:32.603Z,97839.10
2023-04-26T17:07:02.913Z,97838.91
2023-04-26T17:09:32.911Z,97837.58
2023-04-26T17:12:13.005Z,97821.23
2023-04-26T17:14:42.874Z,97817.14
2023-04-26T17:17:14.205Z,97816.63
2023-04-26T17:19:44.509Z,97816.88
2023-04-26T17:22:14.461Z,97814.42
2023-04-26T17:24:44.496Z,97821.23
2023-04-26T17:27:18.731Z,97813.29
2023-04-26T17:32:38.863Z,97798.06
2023-04-26T17:35:09.558Z,97791.80
2023-04-26T17:37:39.448Z,97777.35
2023-04-26T17:40:10.842Z,97751.18
2023-04-26T17:42:41.935Z,97729.37
2023-04-26T17:45:18.529Z,97709.48
2023-04-26T17:47:49.399Z,97702.66
2023-04-26T17:50:21.874Z,97676.67
2023-04-26T17:52:51.774Z,97676.16
2023-04-26T18:04:48.299Z,97345.36
2023-04-26T18:07:35.443Z,97331.42
2023-04-26T18:13:15.093Z,97369.05
2023-04-26T18:16:30.205Z,97373.09
2023-04-26T18:19:13.371Z,97369.84
2023-04-26T18:22:15.425Z,97388.13
2023-04-26T18:25:03.306Z,97388.13
2023-04-26T18:28:03.940Z,97379.95
2023-04-26T18:33:53.959Z,97378.32
2023-04-26T18:37:17.614Z,97396.03
2023-04-26T18:39:53.644Z,97387.55
2023-04-26T18:42:46.398Z,97400.91
2023-04-26T18:46:02.197Z,97398.16
2023-04-26T18:49:05.331Z,97400.34
2023-04-26T18:52:20.871Z,97390.26
2023-04-26T18:55:09.573Z,97394.63
2023-04-26T18:58:02.642Z,97389.69
2023-04-26T19:00:31.078Z,97396.78
2023-04-26T19:03:01.727Z,97423.48
2023-04-26T19:05:34.997Z,97437.92
2023-04-26T19:08:10.566Z,97437.92
2023-04-26T19:10:46.208Z,97441.19
2023-04-26T19:16:25.217Z,97449.64
2023-04-26T19:18:59.292Z,97452.66
2023-04-26T19:37:16.301Z,97458.66
2023-04-26T19:42:58.868Z,97470.37
2023-04-26T19:52:05.247Z,97492.72
2023-04-26T19:54:53.661Z,97504.14
2023-04-26T19:57:39.593Z,97515.59
2023-04-26T20:00:12.878Z,97522.95
2023-04-26T20:02:43.100Z,97537.11
2023-04-26T20:05:16.261Z,97535.75
2023-04-26T20:07:46.605Z,97546.37
2023-04-26T20:10:17.259Z,97549.38
2023-04-26T20:12:57.281Z,97556.19
2023-04-26T20:18:07.324Z,97566.00
2023-04-26T20:20:40.543Z,97565.19
2023-04-26T20:23:12.410Z,97568.45
2023-04-26T20:25:42.640Z,97560.55
2023-04-26T20:28:14.752Z,97560.82
2023-04-26T20:30:49.407Z,97566.81
2023-04-26T20:33:58.714Z,97554.55
2023-04-26T20:35:58.252Z,97551.28
2023-04-26T20:38:27.093Z,97548.25
2023-04-26T20:40:58.976Z,97551.53
2023-04-26T20:43:45.000Z,97551.53
2023-04-26T20:46:35.185Z,97532.97
2023-04-26T20:49:19.970Z,97536.84
2023-04-26T20:52:09.344Z,97536.84
2023-04-26T20:54:49.364Z,97508.84
2023-04-26T20:57:22.025Z,97526.76
2023-04-26T20:59:57.404Z,97520.19
2023-04-26T21:02:37.459Z,97523.22
2023-04-26T21:05:09.422Z,97517.77
2023-04-26T21:08:00.962Z,97507.30
2023-04-26T21:10:37.480Z,97523.22
2023-04-26T21:13:37.413Z,97525.09
2023-04-26T21:16:10.088Z,97522.91
2023-04-26T21:22:39.885Z,97506.30
2023-04-26T21:25:11.249Z,97504.62
2023-04-26T21:28:19.072Z,97494.82
2023-04-26T21:31:09.537Z,97482.29
2023-04-26T21:34:10.961Z,97488.25
2023-04-26T21:37:05.645Z,97489.89
2023-04-26T21:40:08.994Z,97502.15
2023-04-26T21:42:31.562Z,97496.70
2023-04-26T21:45:02.698Z,97493.70
2023-04-26T21:47:32.874Z,97488.26
2023-04-26T21:50:03.121Z,97494.22
2023-04-26T21:52:33.272Z,97492.34
2023-04-26T21:55:34.778Z,97490.68
2023-04-26T22:01:44.546Z,97486.59
2023-04-26T22:04:45.044Z,97486.32
2023-04-26T22:08:01.418Z,97486.87
2023-04-26T22:10:47.855Z,97486.30
2023-04-26T22:17:20.094Z,97471.37
2023-04-26T22:20:08.925Z,97500.16
2023-04-26T22:22:33.006Z,97495.25
2023-04-26T22:28:12.941Z,97485.20
2023-04-26T22:31:02.911Z,97491.44
2023-04-26T22:33:33.373Z,97494.68
2023-04-26T22:36:04.726Z,97487.59
2023-04-26T22:38:40.452Z,97492.50
2023-04-26T22:41:12.942Z,97488.69
2023-04-26T22:44:05.183Z,97485.42
2023-04-26T22:49:46.824Z,97491.44
2023-04-26T22:52:30.921Z,97492.44
2023-04-26T22:55:21.209Z,97489.44
2023-04-26T22:58:08.494Z,97497.31
2023-04-26T23:00:38.915Z,97496.49
2023-04-26T23:03:10.338Z,97491.05
2023-04-26T23:05:41.634Z,97475.80
2023-04-26T23:08:11.984Z,97475.80
2023-04-26T23:10:43.414Z,97476.58
2023-04-26T23:16:40.000Z,97469.23
2023-04-26T23:19:01.608Z,97471.41
2023-04-26T23:21:32.177Z,97481.48
2023-04-26T23:24:03.792Z,97487.20
2023-04-26T23:26:37.492Z,97483.13
2023-04-26T23:29:13.981Z,97486.91
2023-04-26T23:32:03.532Z,97478.73
2023-04-26T23:35:19.630Z,97476.55
2023-04-26T23:38:15.227Z,97470.02
2023-04-26T23:41:45.963Z,97465.63
2023-04-26T23:44:09.485Z,97458.00
2023-04-26T23:47:04.749Z,97450.08
2023-04-26T23:50:00.059Z,97445.98
2023-04-26T23:53:23.327Z,97441.91
2023-04-26T23:58:46.655Z,97429.65
